White Cliffs — PF8219 — position and weather

sailwx.info

Track history (hours):
 
Tides and Currents Weather Stations Pressure Air Temp Water Temp Dewpoint Dewpoint Depression Visibility Wind Speed Wind Dir Waves Ship Positions

White Cliffs

Last reported at 2018-Jun-16 17:45 UTC. Time now 2018-Jun-25 02:01 UTC.
Position N 37°08' W 008°32'.
Warning: this ship's position is 8 days out of date.

Length 14 m.

Type: Sailing vessel. MMSI: 244670559.

Date/timePositionNaut miles runAvg speedWind from/ knotsBaromVisibWave heightAir tempDewpointWater temp
2018-Jun-16 17:45N 37°08' W 008°32'0 0.9
2018-Jun-16 17:17N 37°08' W 008°32'0 0.0
2018-Jun-16 16:56N 37°08' W 008°32'  
2018-Jun-10 23:55N 38°13' W 024°35'2 5.3
2018-Jun-10 23:27N 38°13' W 024°38'3 5.3
2018-Jun-10 22:56N 38°13' W 024°42'3 5.4
2018-Jun-10 22:28N 38°13' W 024°45'3 5.5
2018-Jun-10 22:00N 38°14' W 024°48'34 5.3
2018-Jun-10 15:39N 38°18' W 025°31'1 5.2
2018-Jun-10 15:26N 38°18' W 025°33'2 5.3
2018-Jun-10 14:59N 38°18' W 025°36'6 5.2
2018-Jun-10 13:53N 38°18' W 025°43'3 5.2
2018-Jun-10 13:17N 38°19' W 025°47'2 5.3
2018-Jun-10 12:52N 38°19' W 025°50'2 5.1
2018-Jun-10 12:29N 38°20' W 025°52'3 5.1
2018-Jun-10 11:58N 38°20' W 025°55'11 5.2
2018-Jun-10 09:52N 38°21' W 026°09'2 5.3
2018-Jun-10 09:29N 38°21' W 026°12'76 5.2
2018-Jun-09 18:49N 38°31' W 027°48'2 5.6
2018-Jun-09 18:30N 38°31' W 027°50'3 5.3
2018-Jun-09 17:59N 38°31' W 027°53'3 5.1
2018-Jun-09 17:26N 38°32' W 027°57'3 4.9
2018-Jun-09 16:52N 38°32' W 028°00'2 4.7
2018-Jun-09 16:30N 38°32' W 028°03'3 4.9
2018-Jun-09 15:58N 38°32' W 028°06'5 5.2
2018-Jun-09 14:59N 38°33' W 028°13'3 5.4
2018-Jun-09 14:30N 38°33' W 028°16'3 5.6
2018-Jun-09 14:00N 38°33' W 028°19'3 5.8
2018-Jun-09 13:30N 38°34' W 028°23'3 5.7
2018-Jun-09 13:00N 38°34' W 028°27'3 5.7
2018-Jun-09 12:30N 38°34' W 028°30'3 5.1
2018-Jun-09 12:00N 38°33' W 028°33'3 3.9
2018-Jun-09 11:07N 38°32' W 028°38'0 0.0
2018-Jun-09 10:58N 38°32' W 028°38'0 0.0
2018-Jun-09 10:28N 38°32' W 028°38'0 0.0
2018-Jun-09 09:58N 38°32' W 028°38'0 0.0
2018-Jun-09 09:28N 38°32' W 028°38'0 0.0
2018-Jun-09 08:58N 38°32' W 028°38'0 0.0
2018-Jun-09 08:28N 38°32' W 028°38'0 0.0
2018-Jun-09 07:58N 38°32' W 028°38'0 0.0
2018-Jun-09 07:28N 38°32' W 028°38'0 0.0
2018-Jun-09 06:58N 38°32' W 028°38'0 0.0
2018-Jun-09 06:28N 38°32' W 028°38'0 0.0
2018-Jun-09 05:55N 38°32' W 028°38'0 0.0
2018-Jun-09 05:28N 38°32' W 028°38'0 0.0
2018-Jun-09 04:58N 38°32' W 028°38'0 0.0
2018-Jun-09 04:25N 38°32' W 028°38'0 0.0
2018-Jun-09 03:58N 38°32' W 028°38'0 0.0
2018-Jun-09 03:28N 38°32' W 028°38'0 0.0
2018-Jun-09 02:58N 38°32' W 028°38'0 0.0
2018-Jun-09 02:28N 38°32' W 028°38'0 0.0
2018-Jun-09 01:55N 38°32' W 028°38'0 0.0
2018-Jun-09 01:28N 38°32' W 028°38'0 0.0
2018-Jun-09 00:58N 38°32' W 028°38'0 0.0
2018-Jun-09 00:28N 38°32' W 028°38'0 0.0
2018-Jun-08 23:58N 38°32' W 028°38'0 0.0
2018-Jun-08 23:28N 38°32' W 028°38'0 0.0
2018-Jun-08 22:58N 38°32' W 028°38'0 0.0
2018-Jun-08 22:28N 38°32' W 028°38'0 0.0
2018-Jun-08 21:55N 38°32' W 028°38'0 0.0
2018-Jun-08 21:28N 38°32' W 028°38'0 0.0
2018-Jun-08 20:55N 38°32' W 028°38'0 0.0
2018-Jun-08 20:28N 38°32' W 028°38'0 0.0
2018-Jun-08 19:58N 38°32' W 028°38'0 0.0
2018-Jun-08 19:28N 38°32' W 028°38'0 0.0
2018-Jun-08 18:55N 38°32' W 028°38'0 0.0
2018-Jun-08 18:28N 38°32' W 028°38'0 0.0
2018-Jun-08 17:58N 38°32' W 028°38'0 0.0
2018-Jun-08 17:28N 38°32' W 028°38'0 0.0
2018-Jun-08 16:58N 38°32' W 028°38'0 0.0
2018-Jun-08 16:25N 38°32' W 028°38'0 0.0
2018-Jun-08 15:58N 38°32' W 028°38'0 0.0
2018-Jun-08 15:28N 38°32' W 028°38'0 0.0
2018-Jun-08 14:58N 38°32' W 028°38'0 0.0
2018-Jun-08 14:28N 38°32' W 028°38'0 0.0
2018-Jun-08 13:58N 38°32' W 028°38'0 0.0
2018-Jun-08 13:28N 38°32' W 028°38'0 0.0
2018-Jun-08 12:58N 38°32' W 028°38'0 0.0
2018-Jun-08 12:28N 38°32' W 028°38'0 0.0
2018-Jun-08 11:58N 38°32' W 028°38'0 0.0
2018-Jun-08 11:28N 38°32' W 028°38'0 0.0
2018-Jun-08 10:59N 38°32' W 028°38'0 0.0
2018-Jun-08 10:29N 38°32' W 028°38'0 0.0
2018-Jun-08 09:59N 38°32' W 028°38'0 0.0
2018-Jun-08 09:29N 38°32' W 028°38'0 0.0
2018-Jun-08 08:56N 38°32' W 028°38'0 0.0
2018-Jun-08 08:29N 38°32' W 028°38'0 0.0
2018-Jun-08 07:59N 38°32' W 028°38'0 0.0
2018-Jun-08 07:29N 38°32' W 028°38'0 0.0
2018-Jun-08 06:59N 38°32' W 028°38'0 0.0
2018-Jun-08 06:29N 38°32' W 028°38'0 0.0
2018-Jun-08 05:56N 38°32' W 028°38'0 0.0
2018-Jun-08 05:29N 38°32' W 028°38'0 0.0
2018-Jun-08 04:59N 38°32' W 028°38'0 0.0
2018-Jun-08 04:29N 38°32' W 028°38'0 0.0
2018-Jun-08 03:59N 38°32' W 028°38'0 0.0
2018-Jun-08 03:26N 38°32' W 028°38'0 0.0
2018-Jun-08 02:56N 38°32' W 028°38'0 0.0
2018-Jun-08 02:29N 38°32' W 028°38'0 0.0
2018-Jun-08 01:59N 38°32' W 028°38'0 0.0
2018-Jun-08 01:29N 38°32' W 028°38'0 0.0
2018-Jun-08 00:59N 38°32' W 028°38'0 0.0
2018-Jun-08 00:26N 38°32' W 028°38'0 0.0
2018-Jun-07 23:59N 38°32' W 028°38'0 0.0
2018-Jun-07 23:29N 38°32' W 028°38'0 0.0
2018-Jun-07 22:59N 38°32' W 028°38'0 0.0
2018-Jun-07 22:29N 38°32' W 028°38'0 0.0
2018-Jun-07 21:59N 38°32' W 028°38'0 0.0
2018-Jun-07 21:29N 38°32' W 028°38'0 0.0
2018-Jun-07 20:59N 38°32' W 028°38'0 0.0
2018-Jun-07 20:29N 38°32' W 028°38'0 0.0
2018-Jun-07 19:56N 38°32' W 028°38'0 0.0
2018-Jun-07 19:29N 38°32' W 028°38'0 0.0
2018-Jun-07 18:59N 38°32' W 028°38'0 0.0
2018-Jun-07 18:29N 38°32' W 028°38'0 0.0
2018-Jun-07 17:53N 38°32' W 028°38'0 0.0
2018-Jun-07 17:29N 38°32' W 028°38'0 0.0
2018-Jun-07 16:59N 38°32' W 028°38'0 0.0
2018-Jun-07 16:29N 38°32' W 028°38'0 0.0
2018-Jun-07 15:59N 38°32' W 028°38'0 0.0
2018-Jun-07 15:29N 38°32' W 028°38'0 0.0
2018-Jun-07 14:59N 38°32' W 028°38'0 0.0
2018-Jun-07 14:29N 38°32' W 028°38'0 0.0
2018-Jun-07 13:59N 38°32' W 028°38'0 0.0
2018-Jun-07 13:29N 38°32' W 028°38'0 0.0
2018-Jun-07 12:59N 38°32' W 028°38'0 0.0
2018-Jun-07 12:29N 38°32' W 028°38'0 0.0
2018-Jun-07 11:59N 38°32' W 028°38'0 0.0
2018-Jun-07 11:29N 38°32' W 028°38'0 0.0
2018-Jun-07 10:59N 38°32' W 028°38'0 0.0
2018-Jun-07 10:29N 38°32' W 028°38'0 0.0
2018-Jun-07 09:59N 38°32' W 028°38'0 0.0
2018-Jun-07 09:29N 38°32' W 028°38'0 0.0
2018-Jun-07 08:56N 38°32' W 028°38'0 0.0
2018-Jun-07 08:29N 38°32' W 028°38'0 0.0
2018-Jun-07 07:59N 38°32' W 028°38'0 0.0
2018-Jun-07 07:29N 38°32' W 028°38'0 0.0
2018-Jun-07 06:59N 38°32' W 028°38'0 0.0
2018-Jun-07 06:29N 38°32' W 028°38'0 0.0
2018-Jun-07 05:59N 38°32' W 028°38'0 0.0
2018-Jun-07 05:29N 38°32' W 028°38'0 0.0
2018-Jun-07 04:56N 38°32' W 028°38'0 0.0
2018-Jun-07 04:29N 38°32' W 028°38'0 0.0
2018-Jun-07 03:59N 38°32' W 028°38'0 0.0
2018-Jun-07 03:29N 38°32' W 028°38'0 0.0
2018-Jun-07 02:59N 38°32' W 028°38'0 0.0
2018-Jun-07 02:29N 38°32' W 028°38'0 0.0
2018-Jun-07 01:59N 38°32' W 028°38'0 0.0
2018-Jun-07 01:29N 38°32' W 028°38'0 0.0
2018-Jun-07 00:59N 38°32' W 028°38'0 0.0
2018-Jun-07 00:29N 38°32' W 028°38'0 0.0
2018-Jun-06 23:56N 38°32' W 028°38'0 0.0
2018-Jun-06 23:29N 38°32' W 028°38'0 0.0
2018-Jun-06 22:59N 38°32' W 028°38'0 0.0
2018-Jun-06 22:29N 38°32' W 028°38'0 0.0
2018-Jun-06 21:59N 38°32' W 028°38'0 0.0
2018-Jun-06 21:29N 38°32' W 028°38'0 0.0
2018-Jun-06 20:59N 38°32' W 028°38'0 0.0
2018-Jun-06 20:29N 38°32' W 028°38'0 0.0
2018-Jun-06 19:59N 38°32' W 028°38'0 0.0
2018-Jun-06 19:29N 38°32' W 028°38'0 0.0
2018-Jun-06 18:56N 38°32' W 028°38'0 0.0
2018-Jun-06 18:29N 38°32' W 028°38'0 0.0
2018-Jun-06 17:59N 38°32' W 028°38'  
Track history (hours):
 
Tides and Currents Weather Stations Pressure Air Temp Water Temp Dewpoint Dewpoint Depression Visibility Wind Speed Wind Dir Waves Ship Positions

White Cliffs

Last reported at 2018-Jun-16 17:45 UTC. Time now 2018-Jun-25 02:01 UTC.
Position N 37°08' W 008°32'.
Warning: this ship's position is 8 days out of date.

Length 14 m.

Type: Sailing vessel. MMSI: 244670559.

Date/timePositionNaut miles runAvg speedWind from/ knotsBaromVisibWave heightAir tempDewpointWater temp
2018-Jun-16 17:45N 37°08' W 008°32'0 0.9
2018-Jun-16 17:17N 37°08' W 008°32'0 0.0
2018-Jun-16 16:56N 37°08' W 008°32'  
2018-Jun-10 23:55N 38°13' W 024°35'2 5.3
2018-Jun-10 23:27N 38°13' W 024°38'3 5.3
2018-Jun-10 22:56N 38°13' W 024°42'3 5.4
2018-Jun-10 22:28N 38°13' W 024°45'3 5.5
2018-Jun-10 22:00N 38°14' W 024°48'34 5.3
2018-Jun-10 15:39N 38°18' W 025°31'1 5.2
2018-Jun-10 15:26N 38°18' W 025°33'2 5.3
2018-Jun-10 14:59N 38°18' W 025°36'6 5.2
2018-Jun-10 13:53N 38°18' W 025°43'3 5.2
2018-Jun-10 13:17N 38°19' W 025°47'2 5.3
2018-Jun-10 12:52N 38°19' W 025°50'2 5.1
2018-Jun-10 12:29N 38°20' W 025°52'3 5.1
2018-Jun-10 11:58N 38°20' W 025°55'11 5.2
2018-Jun-10 09:52N 38°21' W 026°09'2 5.3
2018-Jun-10 09:29N 38°21' W 026°12'76 5.2
2018-Jun-09 18:49N 38°31' W 027°48'2 5.6
2018-Jun-09 18:30N 38°31' W 027°50'3 5.3
2018-Jun-09 17:59N 38°31' W 027°53'3 5.1
2018-Jun-09 17:26N 38°32' W 027°57'3 4.9
2018-Jun-09 16:52N 38°32' W 028°00'2 4.7
2018-Jun-09 16:30N 38°32' W 028°03'3 4.9
2018-Jun-09 15:58N 38°32' W 028°06'5 5.2
2018-Jun-09 14:59N 38°33' W 028°13'3 5.4
2018-Jun-09 14:30N 38°33' W 028°16'3 5.6
2018-Jun-09 14:00N 38°33' W 028°19'3 5.8
2018-Jun-09 13:30N 38°34' W 028°23'3 5.7
2018-Jun-09 13:00N 38°34' W 028°27'3 5.7
2018-Jun-09 12:30N 38°34' W 028°30'3 5.1
2018-Jun-09 12:00N 38°33' W 028°33'3 3.9
2018-Jun-09 11:07N 38°32' W 028°38'0 0.0
2018-Jun-09 10:58N 38°32' W 028°38'0 0.0
2018-Jun-09 10:28N 38°32' W 028°38'0 0.0
2018-Jun-09 09:58N 38°32' W 028°38'0 0.0
2018-Jun-09 09:28N 38°32' W 028°38'0 0.0
2018-Jun-09 08:58N 38°32' W 028°38'0 0.0
2018-Jun-09 08:28N 38°32' W 028°38'0 0.0
2018-Jun-09 07:58N 38°32' W 028°38'0 0.0
2018-Jun-09 07:28N 38°32' W 028°38'0 0.0
2018-Jun-09 06:58N 38°32' W 028°38'0 0.0
2018-Jun-09 06:28N 38°32' W 028°38'0 0.0
2018-Jun-09 05:55N 38°32' W 028°38'0 0.0
2018-Jun-09 05:28N 38°32' W 028°38'0 0.0
2018-Jun-09 04:58N 38°32' W 028°38'0 0.0
2018-Jun-09 04:25N 38°32' W 028°38'0 0.0
2018-Jun-09 03:58N 38°32' W 028°38'0 0.0
2018-Jun-09 03:28N 38°32' W 028°38'0 0.0
2018-Jun-09 02:58N 38°32' W 028°38'0 0.0
2018-Jun-09 02:28N 38°32' W 028°38'0 0.0
2018-Jun-09 01:55N 38°32' W 028°38'0 0.0
2018-Jun-09 01:28N 38°32' W 028°38'0 0.0
2018-Jun-09 00:58N 38°32' W 028°38'0 0.0
2018-Jun-09 00:28N 38°32' W 028°38'0 0.0
2018-Jun-08 23:58N 38°32' W 028°38'0 0.0
2018-Jun-08 23:28N 38°32' W 028°38'0 0.0
2018-Jun-08 22:58N 38°32' W 028°38'0 0.0
2018-Jun-08 22:28N 38°32' W 028°38'0 0.0
2018-Jun-08 21:55N 38°32' W 028°38'0 0.0
2018-Jun-08 21:28N 38°32' W 028°38'0 0.0
2018-Jun-08 20:55N 38°32' W 028°38'0 0.0
2018-Jun-08 20:28N 38°32' W 028°38'0 0.0
2018-Jun-08 19:58N 38°32' W 028°38'0 0.0
2018-Jun-08 19:28N 38°32' W 028°38'0 0.0
2018-Jun-08 18:55N 38°32' W 028°38'0 0.0
2018-Jun-08 18:28N 38°32' W 028°38'0 0.0
2018-Jun-08 17:58N 38°32' W 028°38'0 0.0
2018-Jun-08 17:28N 38°32' W 028°38'0 0.0
2018-Jun-08 16:58N 38°32' W 028°38'0 0.0
2018-Jun-08 16:25N 38°32' W 028°38'0 0.0
2018-Jun-08 15:58N 38°32' W 028°38'0 0.0
2018-Jun-08 15:28N 38°32' W 028°38'0 0.0
2018-Jun-08 14:58N 38°32' W 028°38'0 0.0
2018-Jun-08 14:28N 38°32' W 028°38'0 0.0
2018-Jun-08 13:58N 38°32' W 028°38'0 0.0
2018-Jun-08 13:28N 38°32' W 028°38'0 0.0
2018-Jun-08 12:58N 38°32' W 028°38'0 0.0
2018-Jun-08 12:28N 38°32' W 028°38'0 0.0
2018-Jun-08 11:58N 38°32' W 028°38'0 0.0
2018-Jun-08 11:28N 38°32' W 028°38'0 0.0
2018-Jun-08 10:59N 38°32' W 028°38'0 0.0
2018-Jun-08 10:29N 38°32' W 028°38'0 0.0
2018-Jun-08 09:59N 38°32' W 028°38'0 0.0
2018-Jun-08 09:29N 38°32' W 028°38'0 0.0
2018-Jun-08 08:56N 38°32' W 028°38'0 0.0
2018-Jun-08 08:29N 38°32' W 028°38'0 0.0
2018-Jun-08 07:59N 38°32' W 028°38'0 0.0
2018-Jun-08 07:29N 38°32' W 028°38'0 0.0
2018-Jun-08 06:59N 38°32' W 028°38'0 0.0
2018-Jun-08 06:29N 38°32' W 028°38'0 0.0
2018-Jun-08 05:56N 38°32' W 028°38'0 0.0
2018-Jun-08 05:29N 38°32' W 028°38'0 0.0
2018-Jun-08 04:59N 38°32' W 028°38'0 0.0
2018-Jun-08 04:29N 38°32' W 028°38'0 0.0
2018-Jun-08 03:59N 38°32' W 028°38'0 0.0
2018-Jun-08 03:26N 38°32' W 028°38'0 0.0
2018-Jun-08 02:56N 38°32' W 028°38'0 0.0
2018-Jun-08 02:29N 38°32' W 028°38'0 0.0
2018-Jun-08 01:59N 38°32' W 028°38'0 0.0
2018-Jun-08 01:29N 38°32' W 028°38'0 0.0
2018-Jun-08 00:59N 38°32' W 028°38'0 0.0
2018-Jun-08 00:26N 38°32' W 028°38'0 0.0
2018-Jun-07 23:59N 38°32' W 028°38'0 0.0
2018-Jun-07 23:29N 38°32' W 028°38'0 0.0
2018-Jun-07 22:59N 38°32' W 028°38'0 0.0
2018-Jun-07 22:29N 38°32' W 028°38'0 0.0
2018-Jun-07 21:59N 38°32' W 028°38'0 0.0
2018-Jun-07 21:29N 38°32' W 028°38'0 0.0
2018-Jun-07 20:59N 38°32' W 028°38'0 0.0
2018-Jun-07 20:29N 38°32' W 028°38'0 0.0
2018-Jun-07 19:56N 38°32' W 028°38'0 0.0
2018-Jun-07 19:29N 38°32' W 028°38'0 0.0
2018-Jun-07 18:59N 38°32' W 028°38'0 0.0
2018-Jun-07 18:29N 38°32' W 028°38'0 0.0
2018-Jun-07 17:53N 38°32' W 028°38'0 0.0
2018-Jun-07 17:29N 38°32' W 028°38'0 0.0
2018-Jun-07 16:59N 38°32' W 028°38'0 0.0
2018-Jun-07 16:29N 38°32' W 028°38'0 0.0
2018-Jun-07 15:59N 38°32' W 028°38'0 0.0
2018-Jun-07 15:29N 38°32' W 028°38'0 0.0
2018-Jun-07 14:59N 38°32' W 028°38'0 0.0
2018-Jun-07 14:29N 38°32' W 028°38'0 0.0
2018-Jun-07 13:59N 38°32' W 028°38'0 0.0
2018-Jun-07 13:29N 38°32' W 028°38'0 0.0
2018-Jun-07 12:59N 38°32' W 028°38'0 0.0
2018-Jun-07 12:29N 38°32' W 028°38'0 0.0
2018-Jun-07 11:59N 38°32' W 028°38'0 0.0
2018-Jun-07 11:29N 38°32' W 028°38'0 0.0
2018-Jun-07 10:59N 38°32' W 028°38'0 0.0
2018-Jun-07 10:29N 38°32' W 028°38'0 0.0
2018-Jun-07 09:59N 38°32' W 028°38'0 0.0
2018-Jun-07 09:29N 38°32' W 028°38'0 0.0
2018-Jun-07 08:56N 38°32' W 028°38'0 0.0
2018-Jun-07 08:29N 38°32' W 028°38'0 0.0
2018-Jun-07 07:59N 38°32' W 028°38'0 0.0
2018-Jun-07 07:29N 38°32' W 028°38'0 0.0
2018-Jun-07 06:59N 38°32' W 028°38'0 0.0
2018-Jun-07 06:29N 38°32' W 028°38'0 0.0
2018-Jun-07 05:59N 38°32' W 028°38'0 0.0
2018-Jun-07 05:29N 38°32' W 028°38'0 0.0
2018-Jun-07 04:56N 38°32' W 028°38'0 0.0
2018-Jun-07 04:29N 38°32' W 028°38'0 0.0
2018-Jun-07 03:59N 38°32' W 028°38'0 0.0
2018-Jun-07 03:29N 38°32' W 028°38'0 0.0
2018-Jun-07 02:59N 38°32' W 028°38'0 0.0
2018-Jun-07 02:29N 38°32' W 028°38'0 0.0
2018-Jun-07 01:59N 38°32' W 028°38'0 0.0
2018-Jun-07 01:29N 38°32' W 028°38'0 0.0
2018-Jun-07 00:59N 38°32' W 028°38'0 0.0
2018-Jun-07 00:29N 38°32' W 028°38'0 0.0
2018-Jun-06 23:56N 38°32' W 028°38'0 0.0
2018-Jun-06 23:29N 38°32' W 028°38'0 0.0
2018-Jun-06 22:59N 38°32' W 028°38'0 0.0
2018-Jun-06 22:29N 38°32' W 028°38'0 0.0
2018-Jun-06 21:59N 38°32' W 028°38'0 0.0
2018-Jun-06 21:29N 38°32' W 028°38'0 0.0
2018-Jun-06 20:59N 38°32' W 028°38'0 0.0
2018-Jun-06 20:29N 38°32' W 028°38'0 0.0
2018-Jun-06 19:59N 38°32' W 028°38'0 0.0
2018-Jun-06 19:29N 38°32' W 028°38'0 0.0
2018-Jun-06 18:56N 38°32' W 028°38'0 0.0
2018-Jun-06 18:29N 38°32' W 028°38'0 0.0
2018-Jun-06 17:59N 38°32' W 028°38'  

Dump ship's entire track history